Time;durP1;ratioP1;P1;durP2;ratioP2;P2;SDS_P1;SDS_P2;PMS_P1;PMS_P2;Temp;Humidity;BMP_temperature;BMP_pressure;BME280_temperature;BME280_humidity;BME280_pressure;Samples;Min_cycle;Max_cycle;Signal;HPM_P1;HPM_P2
2021/03/25 00:03:18;;;;;;;46.93;21.13;;;7.20;95.70;;;;;;8302302;28;20107;-72
2021/03/25 00:07:22;;;;;;;43.08;20.80;;;7.20;95.70;;;;;;8291439;28;20048;-72
2021/03/25 00:11:24;;;;;;;45.07;21.07;;;7.20;95.60;;;;;;8324346;28;20037;-72
2021/03/25 00:15:29;;;;;;;40.95;19.60;;;7.20;95.80;;;;;;8307750;28;20049;-72
2021/03/25 00:19:36;;;;;;;37.63;19.42;;;7.20;95.80;;;;;;8310304;28;20053;-72
2021/03/25 00:23:41;;;;;;;34.88;17.58;;;7.20;96.00;;;;;;8322734;28;20434;-71
2021/03/25 00:27:45;;;;;;;36.78;17.60;;;7.20;96.10;;;;;;8320842;28;20041;-71
2021/03/25 00:31:49;;;;;;;37.15;17.48;;;7.20;96.20;;;;;;8320940;28;20469;-71
2021/03/25 00:35:54;;;;;;;35.67;16.67;;;7.20;96.10;;;;;;8330400;28;20057;-71
2021/03/25 00:39:58;;;;;;;37.33;17.35;;;7.20;96.30;;;;;;8324550;28;20506;-71
2021/03/25 00:44:14;;;;;;;34.85;16.70;;;7.20;96.00;;;;;;8303749;28;20423;-71
2021/03/25 00:48:21;;;;;;;36.00;17.63;;;7.20;96.00;;;;;;8318568;28;20350;-71
2021/03/25 00:52:25;;;;;;;33.08;16.23;;;7.20;96.00;;;;;;8300959;28;20057;-71
2021/03/25 00:56:32;;;;;;;34.30;16.23;;;7.20;96.10;;;;;;8317475;28;20395;-71
2021/03/25 01:00:40;;;;;;;35.70;16.08;;;7.20;96.20;;;;;;8322755;28;20048;-71
2021/03/25 01:04:46;;;;;;;33.47;17.20;;;7.30;96.10;;;;;;8324946;28;20067;-72
2021/03/25 01:08:53;;;;;;;35.85;16.85;;;7.30;96.20;;;;;;8325938;28;20076;-72
2021/03/25 01:13:00;;;;;;;35.67;16.30;;;7.30;96.10;;;;;;8308428;28;21755;-71
2021/03/25 01:17:05;;;;;;;37.17;17.00;;;7.20;96.30;;;;;;8339865;28;20053;-71
2021/03/25 01:21:07;;;;;;;36.58;15.60;;;7.20;96.00;;;;;;8327486;28;20068;-72
2021/03/25 01:25:12;;;;;;;49.83;16.15;;;7.20;95.90;;;;;;8313730;28;20061;-71
2021/03/25 01:29:20;;;;;;;43.97;17.50;;;7.20;95.90;;;;;;8323772;28;20489;-71
2021/03/25 01:33:26;;;;;;;39.38;17.33;;;7.20;95.90;;;;;;8299786;28;20072;-71
2021/03/25 01:37:43;;;;;;;40.03;16.98;;;7.10;95.80;;;;;;8314686;28;20107;-71
2021/03/25 01:41:47;;;;;;;39.83;16.98;;;7.10;95.80;;;;;;8325197;28;20041;-71
2021/03/25 01:45:57;;;;;;;40.88;16.35;;;7.10;95.70;;;;;;8313003;28;20041;-71
2021/03/25 01:50:03;;;;;;;41.95;17.10;;;7.10;95.70;;;;;;8320358;28;20140;-70
2021/03/25 01:54:21;;;;;;;37.65;16.20;;;7.00;95.70;;;;;;8321304;28;20107;-71
2021/03/25 01:58:50;;;;;;;34.75;15.02;;;6.90;95.70;;;;;;8315067;28;21160;-71
2021/03/25 02:03:39;;;;;;;39.85;16.10;;;6.90;95.80;;;;;;8327473;28;20087;-70
2021/03/25 02:08:02;;;;;;;42.55;16.98;;;6.90;95.60;;;;;;8321479;28;20061;-71
2021/03/25 02:12:30;;;;;;;45.15;16.70;;;6.90;95.60;;;;;;8304864;28;20053;-70
2021/03/25 02:16:45;;;;;;;33.65;16.60;;;6.90;95.60;;;;;;8324207;28;20137;-70
2021/03/25 02:21:30;;;;;;;39.97;16.10;;;6.80;95.50;;;;;;8325954;28;20048;-70
2021/03/25 02:25:46;;;;;;;35.83;15.85;;;6.80;95.60;;;;;;8322923;28;20048;-70
2021/03/25 02:30:23;;;;;;;35.47;15.48;;;6.80;95.60;;;;;;8329356;28;20052;-71
2021/03/25 02:34:46;;;;;;;39.15;16.17;;;6.70;95.50;;;;;;8317452;28;20052;-70
2021/03/25 02:38:59;;;;;;;37.65;15.43;;;6.70;95.50;;;;;;8326383;28;20053;-71
2021/03/25 02:43:12;;;;;;;33.83;15.35;;;6.70;95.50;;;;;;8314044;28;20502;-70
2021/03/25 02:47:19;;;;;;;31.52;13.88;;;6.60;95.50;;;;;;8307681;28;20472;-70
2021/03/25 02:51:43;;;;;;;28.60;13.82;;;6.60;95.50;;;;;;8318982;28;20412;-71
2021/03/25 02:55:51;;;;;;;31.83;14.07;;;6.60;95.60;;;;;;8307262;28;20053;-71
2021/03/25 03:00:11;;;;;;;31.77;13.45;;;6.40;95.40;;;;;;8322635;28;20045;-72
2021/03/25 03:04:36;;;;;;;34.70;12.80;;;6.40;95.50;;;;;;8324046;28;20276;-71
2021/03/25 03:08:46;;;;;;;35.45;14.20;;;6.40;95.60;;;;;;8319016;28;20091;-72
2021/03/25 03:12:52;;;;;;;34.97;13.87;;;6.30;95.60;;;;;;8322216;28;20602;-71
2021/03/25 03:17:12;;;;;;;27.52;13.48;;;6.30;95.50;;;;;;8323997;28;20060;-71
2021/03/25 03:21:59;;;;;;;37.85;13.95;;;6.20;95.60;;;;;;8318184;28;20073;-72
2021/03/25 03:26:30;;;;;;;33.88;14.00;;;6.10;95.40;;;;;;8317570;28;20112;-71
2021/03/25 03:30:40;;;;;;;32.35;14.02;;;6.10;95.60;;;;;;8332980;28;20041;-72
2021/03/25 03:35:11;;;;;;;32.28;13.05;;;6.10;95.60;;;;;;8322875;28;20143;-71
2021/03/25 03:39:23;;;;;;;37.95;13.30;;;6.10;95.50;;;;;;8322606;28;20409;-71
2021/03/25 03:43:29;;;;;;;34.20;13.38;;;6.00;95.50;;;;;;8309449;28;20092;-71
2021/03/25 03:47:38;;;;;;;28.92;12.93;;;6.00;95.50;;;;;;8291277;28;20055;-71
2021/03/25 03:52:12;;;;;;;36.90;13.73;;;6.00;95.50;;;;;;8308089;28;20044;-72
2021/03/25 03:56:28;;;;;;;22.15;11.85;;;5.90;95.50;;;;;;8320216;28;20053;-71
2021/03/25 04:00:50;;;;;;;27.50;11.93;;;5.90;95.60;;;;;;8321218;28;20110;-71
2021/03/25 04:05:24;;;;;;;25.98;11.88;;;5.80;95.60;;;;;;8305346;28;20064;-71
2021/03/25 04:10:01;;;;;;;28.17;12.57;;;5.80;95.50;;;;;;8290947;28;20076;-71
2021/03/25 04:14:25;;;;;;;27.17;12.35;;;5.80;95.50;;;;;;8312015;28;20452;-71
2021/03/25 04:18:52;;;;;;;31.40;12.68;;;5.70;95.70;;;;;;8318718;28;20049;-71
2021/03/25 04:23:39;;;;;;;27.52;11.95;;;5.70;95.80;;;;;;8222381;28;20124;-71
2021/03/25 04:28:01;;;;;;;35.38;13.95;;;5.60;95.60;;;;;;8275969;28;20045;-71
2021/03/25 04:32:05;;;;;;;35.67;13.40;;;5.70;95.60;;;;;;8321784;28;20053;-71
2021/03/25 04:36:16;;;;;;;29.25;13.40;;;5.70;95.50;;;;;;8320818;28;20048;-71
2021/03/25 04:40:25;;;;;;;38.65;14.00;;;5.70;95.50;;;;;;8332990;28;20151;-71
2021/03/25 04:44:48;;;;;;;30.33;13.10;;;5.70;95.40;;;;;;8319971;28;20041;-71
2021/03/25 04:48:57;;;;;;;34.92;14.30;;;5.60;95.30;;;;;;8306694;28;20133;-71
2021/03/25 04:53:17;;;;;;;40.08;14.38;;;5.60;95.50;;;;;;8318059;28;20046;-71
2021/03/25 04:57:37;;;;;;;35.90;14.88;;;5.60;95.60;;;;;;8320489;28;20132;-71
2021/03/25 05:01:42;;;;;;;34.45;13.88;;;5.60;95.50;;;;;;8295458;28;20053;-72
2021/03/25 05:05:46;;;;;;;34.60;14.90;;;5.60;95.50;;;;;;8324652;28;20052;-71
2021/03/25 05:09:54;;;;;;;32.38;14.32;;;5.50;95.50;;;;;;8304177;28;20095;-71
2021/03/25 05:13:59;;;;;;;36.38;14.20;;;5.50;95.50;;;;;;8301000;28;20041;-71
2021/03/25 05:18:15;;;;;;;34.40;14.38;;;5.50;95.50;;;;;;8315908;28;20460;-71
2021/03/25 05:22:59;;;;;;;39.13;14.02;;;5.50;95.60;;;;;;8329498;28;20044;-71
2021/03/25 05:27:16;;;;;;;27.58;13.38;;;5.50;95.60;;;;;;8338323;28;20072;-71
2021/03/25 05:31:21;;;;;;;30.88;13.63;;;5.40;95.70;;;;;;8334580;28;20418;-71
2021/03/25 05:35:35;;;;;;;35.40;13.93;;;5.30;95.80;;;;;;8316919;28;20086;-71
2021/03/25 05:39:42;;;;;;;36.30;13.70;;;5.40;95.80;;;;;;8318368;28;20057;-71
2021/03/25 05:44:17;;;;;;;40.10;14.55;;;5.30;95.10;;;;;;8299310;28;20148;-71
2021/03/25 05:48:49;;;;;;;36.30;14.27;;;5.40;95.70;;;;;;8301243;28;20045;-71
2021/03/25 05:53:15;;;;;;;30.20;13.02;;;5.40;95.70;;;;;;8330826;28;20140;-71
2021/03/25 05:57:38;;;;;;;28.27;12.95;;;5.40;95.70;;;;;;8341536;28;20084;-71
2021/03/25 06:01:51;;;;;;;;;;;5.40;95.70;;;;;;8326019;28;20053;-71
2021/03/25 06:05:59;;;;;;;31.98;13.57;;;5.40;95.30;;;;;;8354912;28;19921;-71
2021/03/25 06:10:06;;;;;;;38.65;14.85;;;5.30;95.60;;;;;;8316078;28;20493;-71
2021/03/25 06:14:40;;;;;;;29.63;11.73;;;5.40;95.70;;;;;;8334756;28;20056;-71
2021/03/25 06:18:50;;;;;;;34.17;13.77;;;5.40;95.60;;;;;;8347513;28;20049;-71
2021/03/25 06:22:54;;;;;;;28.50;13.13;;;5.30;95.60;;;;;;8327218;28;20095;-71
2021/03/25 06:27:25;;;;;;;34.00;15.02;;;5.30;95.70;;;;;;8339716;28;20049;-71
2021/03/25 06:31:43;;;;;;;32.70;15.10;;;5.30;95.80;;;;;;8322158;28;20055;-71
2021/03/25 06:35:56;;;;;;;40.60;16.52;;;5.30;95.80;;;;;;8308988;28;20041;-66
2021/03/25 06:40:24;;;;;;;33.22;15.55;;;5.30;95.80;;;;;;8320106;28;20384;-72
2021/03/25 06:44:47;;;;;;;39.33;15.82;;;5.40;95.90;;;;;;8326198;28;20431;-71
2021/03/25 06:48:59;;;;;;;37.22;16.15;;;5.50;95.80;;;;;;8339852;28;20132;-71
2021/03/25 06:53:22;;;;;;;38.73;16.07;;;5.60;95.70;;;;;;8324536;28;20063;-71
2021/03/25 06:57:37;;;;;;;32.47;15.60;;;5.60;95.60;;;;;;8323492;28;20435;-71
2021/03/25 07:01:45;;;;;;;35.40;15.18;;;5.60;95.60;;;;;;8322709;28;23968;-71
2021/03/25 07:05:56;;;;;;;36.60;16.10;;;5.70;95.50;;;;;;8332759;28;20037;-71
2021/03/25 07:10:05;;;;;;;31.33;13.55;;;5.70;95.50;;;;;;8328284;28;20041;-71
2021/03/25 07:14:18;;;;;;;30.30;14.63;;;5.80;95.50;;;;;;8323807;28;20057;-71
2021/03/25 07:18:37;;;;;;;34.38;15.88;;;5.80;95.50;;;;;;8318659;28;20049;-71
2021/03/25 07:22:41;;;;;;;30.65;14.00;;;5.90;95.50;;;;;;8323549;28;20106;-72
2021/03/25 07:26:54;;;;;;;29.70;14.52;;;6.00;95.40;;;;;;8316248;28;20056;-71
2021/03/25 07:31:01;;;;;;;32.88;15.13;;;6.00;95.30;;;;;;8345805;28;20052;-71
2021/03/25 07:35:23;;;;;;;32.35;15.20;;;6.10;95.30;;;;;;8320391;28;20049;-71
2021/03/25 07:39:36;;;;;;;29.50;14.48;;;6.10;95.30;;;;;;8311407;28;20590;-72
2021/03/25 07:44:04;;;;;;;29.65;14.75;;;6.10;95.30;;;;;;8314315;28;20053;-71
2021/03/25 07:48:26;;;;;;;30.13;16.08;;;6.20;95.30;;;;;;8316856;28;20131;-71
2021/03/25 07:52:32;;;;;;;29.48;13.70;;;6.30;95.20;;;;;;8318551;28;20057;-71
2021/03/25 07:56:48;;;;;;;28.50;15.05;;;6.40;95.10;;;;;;8307119;28;20052;-71
2021/03/25 08:01:05;;;;;;;26.77;14.20;;;6.50;95.10;;;;;;8294411;28;20056;-71
2021/03/25 08:05:30;;;;;;;28.45;13.65;;;6.60;95.10;;;;;;8302493;28;20136;-71
2021/03/25 08:09:55;;;;;;;31.30;13.98;;;6.70;94.90;;;;;;8318567;28;20055;-71
2021/03/25 08:14:13;;;;;;;27.70;15.05;;;6.70;94.80;;;;;;8330243;28;20700;-71
2021/03/25 08:18:53;;;;;;;27.52;13.88;;;6.80;94.90;;;;;;8312286;28;20053;-71
2021/03/25 08:23:21;;;;;;;29.40;14.18;;;7.00;94.80;;;;;;8319184;28;20135;-72
2021/03/25 08:28:02;;;;;;;26.20;12.45;;;7.10;94.60;;;;;;8321431;28;20049;-71
2021/03/25 08:32:14;;;;;;;30.45;14.40;;;7.30;94.50;;;;;;8304379;28;20068;-71
2021/03/25 08:36:25;;;;;;;31.05;13.65;;;7.30;94.40;;;;;;8322346;28;20049;-71
2021/03/25 08:40:49;;;;;;;30.90;14.67;;;7.30;94.50;;;;;;8293086;28;20053;-72
2021/03/25 08:45:19;;;;;;;30.63;13.60;;;7.30;94.60;;;;;;8327173;28;20479;-72
2021/03/25 08:50:00;;;;;;;25.05;13.48;;;7.40;94.60;;;;;;8318856;28;20043;-71
2021/03/25 08:54:17;;;;;;;26.75;13.20;;;7.50;94.50;;;;;;8328617;28;20095;-72
2021/03/25 08:58:28;;;;;;;28.27;13.68;;;7.70;94.50;;;;;;8317454;28;20145;-71
2021/03/25 09:02:40;;;;;;;26.25;14.00;;;8.00;94.40;;;;;;8319122;28;20057;-72
2021/03/25 09:06:49;;;;;;;27.52;14.10;;;8.30;94.20;;;;;;8291668;28;20581;-71
2021/03/25 09:11:00;;;;;;;25.33;13.57;;;8.50;93.90;;;;;;8326717;28;20136;-72
2021/03/25 09:15:08;;;;;;;29.20;14.10;;;8.70;93.90;;;;;;8318897;28;20076;-72
2021/03/25 09:19:31;;;;;;;27.05;14.32;;;8.90;93.50;;;;;;8322291;28;20394;-65
2021/03/25 09:23:39;;;;;;;24.17;12.35;;;9.20;93.80;;;;;;8299087;28;20052;-73
2021/03/25 09:28:10;;;;;;;31.50;16.23;;;9.40;93.50;;;;;;8325887;28;20592;-73
2021/03/25 09:32:32;;;;;;;31.17;16.20;;;9.50;93.50;;;;;;8316654;28;20045;-73
2021/03/25 09:36:43;;;;;;;32.92;16.83;;;9.60;93.20;;;;;;8329624;28;20402;-73
2021/03/25 09:40:52;;;;;;;33.08;16.45;;;9.60;93.40;;;;;;8338421;28;20087;-74
2021/03/25 09:44:59;;;;;;;26.08;15.30;;;9.60;93.40;;;;;;8299445;28;20049;-73
2021/03/25 09:49:29;;;;;;;29.70;16.50;;;9.90;93.50;;;;;;8319051;28;20044;-74
2021/03/25 09:53:54;;;;;;;26.10;14.65;;;10.20;93.20;;;;;;8326990;28;20490;-77
2021/03/25 09:58:01;;;;;;;28.58;14.90;;;10.50;92.50;;;;;;8325969;28;20060;-74
2021/03/25 10:02:03;;;;;;;25.40;14.43;;;10.70;92.60;;;;;;8339742;28;20110;-73
2021/03/25 10:06:43;;;;;;;25.05;14.32;;;10.20;92.50;;;;;;8323672;28;20053;-74
2021/03/25 10:11:00;;;;;;;25.75;14.75;;;10.90;92.40;;;;;;8333843;28;20048;-74
2021/03/25 10:15:27;;;;;;;27.15;14.88;;;11.00;92.50;;;;;;8308207;28;20057;-74
2021/03/25 10:19:47;;;;;;;23.57;13.67;;;11.10;92.70;;;;;;8323102;28;20045;-74
2021/03/25 10:23:51;;;;;;;30.55;13.43;;;11.30;91.80;;;;;;8306736;28;20083;-72
2021/03/25 10:28:02;;;;;;;23.85;12.40;;;11.50;91.90;;;;;;8307646;28;20053;-74
2021/03/25 10:32:34;;;;;;;24.00;13.75;;;11.40;91.40;;;;;;8312891;28;20411;-74
2021/03/25 10:37:33;;;;;;;21.20;13.32;;;11.50;92.30;;;;;;8308373;28;20053;-74
2021/03/25 10:41:38;;;;;;;25.92;14.20;;;11.80;91.50;;;;;;8308659;28;20522;-74
2021/03/25 10:45:52;;;;;;;24.92;13.57;;;12.10;90.90;;;;;;8301964;28;20123;-74
2021/03/25 10:49:59;;;;;;;22.67;12.88;;;12.20;91.00;;;;;;8321059;28;20483;-74
2021/03/25 10:54:21;;;;;;;20.40;11.90;;;12.30;91.30;;;;;;8314849;28;20041;-73
2021/03/25 10:58:29;;;;;;;21.60;12.30;;;12.40;91.20;;;;;;8319651;28;20053;-74
2021/03/25 11:02:42;;;;;;;22.42;12.30;;;12.50;91.10;;;;;;8315859;28;20532;-74
2021/03/25 11:06:47;;;;;;;21.70;12.45;;;12.70;91.00;;;;;;8319787;28;20450;-74
2021/03/25 11:10:52;;;;;;;20.70;13.05;;;12.90;91.10;;;;;;8313414;28;20061;-74
2021/03/25 11:15:02;;;;;;;23.58;13.50;;;13.00;90.60;;;;;;8320851;28;20523;-74
2021/03/25 11:19:13;;;;;;;22.25;13.65;;;12.90;90.60;;;;;;8293724;28;21284;-74
2021/03/25 11:23:20;;;;;;;24.17;13.68;;;13.00;90.80;;;;;;8329541;28;20103;-74
2021/03/25 11:27:31;;;;;;;23.77;14.68;;;13.10;90.90;;;;;;8316339;28;20076;-74
2021/03/25 11:31:38;;;;;;;23.90;13.85;;;12.30;90.50;;;;;;8323790;28;20041;-73
2021/03/25 11:35:50;;;;;;;27.80;15.07;;;13.00;90.50;;;;;;8325021;28;20111;-73
2021/03/25 11:39:59;;;;;;;25.08;14.73;;;13.00;91.10;;;;;;8324163;28;20414;-73
2021/03/25 11:44:05;;;;;;;24.38;15.02;;;12.90;91.40;;;;;;8331102;28;20081;-73
2021/03/25 11:48:26;;;;;;;28.15;15.18;;;13.00;91.30;;;;;;8319289;28;20080;-73
2021/03/25 11:52:42;;;;;;;;;;;13.00;91.10;;;;;;8320880;28;20046;-73
2021/03/25 11:56:50;;;;;;;23.23;16.40;;;13.10;91.10;;;;;;8323205;28;19967;-73
2021/03/25 12:01:04;;;;;;;27.02;18.33;;;13.20;91.30;;;;;;8323717;28;20057;-73
2021/03/25 12:05:32;;;;;;;29.27;18.70;;;13.30;91.20;;;;;;8311769;28;20054;-73
2021/03/25 12:09:37;;;;;;;35.55;21.33;;;13.30;90.90;;;;;;8323744;28;20041;-72
2021/03/25 12:13:42;;;;;;;33.17;21.23;;;13.10;91.50;;;;;;8310450;28;20049;-74
2021/03/25 12:18:00;;;;;;;35.40;20.60;;;13.10;91.80;;;;;;8302524;28;20072;-74
2021/03/25 12:22:09;;;;;;;34.58;20.58;;;13.20;91.30;;;;;;8321034;28;20056;-74
2021/03/25 12:26:16;;;;;;;32.08;20.77;;;13.10;91.30;;;;;;8328187;28;20474;-73
2021/03/25 12:30:23;;;;;;;33.20;20.38;;;13.10;91.50;;;;;;8304543;28;20057;-74
2021/03/25 12:34:27;;;;;;;34.20;21.15;;;13.10;91.20;;;;;;8308396;28;20052;-74
2021/03/25 12:38:32;;;;;;;30.05;19.65;;;13.20;91.40;;;;;;8316747;28;20052;-74
2021/03/25 12:42:53;;;;;;;33.92;20.13;;;13.20;91.50;;;;;;8330261;28;20060;-74
2021/03/25 12:47:05;;;;;;;30.55;20.17;;;13.10;91.30;;;;;;8277680;28;20947;-74
2021/03/25 12:51:29;;;;;;;36.72;20.33;;;13.10;91.50;;;;;;8305669;28;20147;-74
2021/03/25 12:55:39;;;;;;;27.58;18.70;;;13.20;91.90;;;;;;8315890;28;20075;-74
2021/03/25 12:59:42;;;;;;;29.25;19.27;;;13.40;90.70;;;;;;8304746;28;20048;-73
2021/03/25 13:03:49;;;;;;;28.10;16.58;;;13.50;90.50;;;;;;8332805;28;20077;-74
2021/03/25 13:07:54;;;;;;;26.17;16.55;;;13.50;88.50;;;;;;8325737;28;20491;-74
2021/03/25 13:12:16;;;;;;;29.92;18.30;;;13.50;88.70;;;;;;8318346;28;20045;-74
2021/03/25 13:16:20;;;;;;;;;;;13.50;89.20;;;;;;8311961;28;20037;-72
2021/03/25 13:20:25;;;;;;;27.55;15.82;;;13.40;86.80;;;;;;8301453;28;20483;-74
2021/03/25 13:24:29;;;;;;;24.02;14.75;;;13.40;88.20;;;;;;8332781;28;20056;-74
2021/03/25 13:28:43;;;;;;;27.55;14.70;;;13.50;88.00;;;;;;8321776;28;20530;-73
2021/03/25 13:32:49;;;;;;;22.83;13.63;;;13.40;88.50;;;;;;8327729;28;20049;-74
2021/03/25 13:36:57;;;;;;;19.55;12.45;;;13.40;88.00;;;;;;8325159;28;20045;-74
2021/03/25 13:41:02;;;;;;;22.38;13.55;;;13.40;88.00;;;;;;8323577;28;20050;-74
2021/03/25 13:45:10;;;;;;;23.45;14.13;;;13.40;87.90;;;;;;8334142;28;20072;-74
2021/03/25 13:49:14;;;;;;;21.65;13.30;;;13.40;88.00;;;;;;8328263;28;20048;-74
2021/03/25 13:53:18;;;;;;;24.73;14.77;;;13.40;87.40;;;;;;8300940;28;20502;-74
2021/03/25 13:57:25;;;;;;;23.45;14.45;;;13.30;87.30;;;;;;8305224;28;20053;-74
2021/03/25 14:01:31;;;;;;;24.25;14.60;;;13.40;88.60;;;;;;8314200;28;20045;-73
2021/03/25 14:05:37;;;;;;;20.73;13.85;;;13.30;88.00;;;;;;8327166;28;20504;-74
2021/03/25 14:09:42;;;;;;;27.70;15.45;;;13.30;87.40;;;;;;8327027;28;20043;-74
2021/03/25 14:13:49;;;;;;;26.63;16.15;;;13.30;88.30;;;;;;8327026;28;20044;-74
2021/03/25 14:17:53;;;;;;;25.73;14.60;;;13.20;88.20;;;;;;8325767;28;20065;-74
2021/03/25 14:22:00;;;;;;;22.38;14.48;;;13.20;89.20;;;;;;8337112;28;20434;-74
2021/03/25 14:26:04;;;;;;;25.40;15.82;;;13.20;86.60;;;;;;8329761;28;20107;-76
2021/03/25 14:30:09;;;;;;;26.60;16.02;;;13.10;87.70;;;;;;8323624;28;20128;-74
2021/03/25 14:34:18;;;;;;;20.55;13.52;;;13.10;86.80;;;;;;8325330;28;20049;-74
2021/03/25 14:38:25;;;;;;;22.83;14.23;;;13.20;86.70;;;;;;8333587;28;20056;-73
2021/03/25 14:42:33;;;;;;;24.20;14.48;;;13.20;86.00;;;;;;8315904;28;20045;-74
2021/03/25 14:46:38;;;;;;;25.60;15.77;;;13.20;87.20;;;;;;8312659;28;20045;-73
2021/03/25 14:50:42;;;;;;;26.48;15.27;;;13.20;87.50;;;;;;8337881;28;20103;-74
2021/03/25 14:54:49;;;;;;;23.08;15.05;;;13.20;87.90;;;;;;8334944;28;20307;-73
2021/03/25 14:58:53;;;;;;;30.15;16.75;;;13.20;86.60;;;;;;8326090;28;20423;-73
2021/03/25 15:03:00;;;;;;;27.63;16.55;;;13.20;85.90;;;;;;8308926;28;20056;-73
2021/03/25 15:07:05;;;;;;;29.65;18.48;;;13.00;87.40;;;;;;8309844;28;20056;-74
2021/03/25 15:11:09;;;;;;;29.13;18.55;;;12.90;87.70;;;;;;8330047;28;20418;-73
2021/03/25 15:15:17;;;;;;;31.98;19.20;;;12.90;89.10;;;;;;8327439;28;20044;-73
2021/03/25 15:19:22;;;;;;;30.35;19.67;;;12.90;88.10;;;;;;8322928;28;20044;-71
2021/03/25 15:23:45;;;;;;;32.15;19.33;;;12.90;88.20;;;;;;8321108;28;20041;-73
2021/03/25 15:27:52;;;;;;;33.30;19.65;;;12.70;89.00;;;;;;8330078;28;20136;-74
2021/03/25 15:31:57;;;;;;;31.23;18.55;;;12.70;89.20;;;;;;8321663;28;20056;-73
2021/03/25 15:36:09;;;;;;;35.15;19.77;;;12.70;88.50;;;;;;8316664;28;20511;-74
2021/03/25 15:40:14;;;;;;;31.90;19.88;;;12.60;88.30;;;;;;8333203;28;20461;-73
2021/03/25 15:44:23;;;;;;;35.75;21.67;;;12.50;89.10;;;;;;8308769;28;20053;-74
2021/03/25 15:48:30;;;;;;;33.65;20.58;;;12.50;89.60;;;;;;8327773;28;20462;-74
2021/03/25 15:52:36;;;;;;;33.15;21.95;;;12.40;89.90;;;;;;8316942;28;20111;-73
2021/03/25 15:56:43;;;;;;;37.13;20.75;;;12.30;90.30;;;;;;8289118;28;22873;-73
2021/03/25 16:00:49;;;;;;;34.22;21.88;;;12.10;90.20;;;;;;8330221;28;20048;-74
2021/03/25 16:04:53;;;;;;;35.55;22.27;;;12.40;90.40;;;;;;8301169;28;20107;-73
2021/03/25 16:08:57;;;;;;;42.30;23.15;;;12.30;90.60;;;;;;8327619;28;20045;-74
2021/03/25 16:13:01;;;;;;;37.05;21.85;;;12.30;90.40;;;;;;8310250;28;20055;-74
2021/03/25 16:17:08;;;;;;;43.10;23.90;;;12.30;90.50;;;;;;8328767;28;20142;-73
2021/03/25 16:21:12;;;;;;;38.00;24.10;;;12.30;90.50;;;;;;8308611;28;20144;-74
2021/03/25 16:25:20;;;;;;;34.85;23.55;;;12.20;90.70;;;;;;8310906;28;20060;-73
2021/03/25 16:29:24;;;;;;;43.28;23.65;;;12.10;90.60;;;;;;8313116;28;20061;-73
2021/03/25 16:33:28;;;;;;;40.45;23.92;;;12.10;90.80;;;;;;8323603;28;20624;-73
2021/03/25 16:37:32;;;;;;;42.50;25.10;;;12.10;90.90;;;;;;8345162;28;20055;-73
2021/03/25 16:41:37;;;;;;;40.47;24.27;;;12.10;91.00;;;;;;8320841;28;20504;-74
2021/03/25 16:45:47;;;;;;;42.20;24.85;;;12.00;91.00;;;;;;8308288;28;20044;-74
2021/03/25 16:49:52;;;;;;;44.75;24.88;;;12.00;91.20;;;;;;8305273;28;20577;-73
2021/03/25 16:53:56;;;;;;;48.03;28.00;;;11.90;91.20;;;;;;8318166;28;20057;-73
2021/03/25 16:58:03;;;;;;;43.72;27.20;;;11.90;91.40;;;;;;8332315;28;20117;-74
2021/03/25 17:02:07;;;;;;;48.63;26.70;;;11.90;91.30;;;;;;8319476;28;20103;-73
2021/03/25 17:06:15;;;;;;;43.67;26.27;;;11.80;91.30;;;;;;8300451;28;20917;-74
2021/03/25 17:10:21;;;;;;;46.63;27.52;;;11.70;91.40;;;;;;8318355;28;20072;-74
2021/03/25 17:14:30;;;;;;;46.55;27.85;;;11.70;91.50;;;;;;8329217;28;20051;-74
2021/03/25 17:18:37;;;;;;;51.05;28.05;;;11.70;91.60;;;;;;8295542;28;20052;-74
2021/03/25 17:22:46;;;;;;;45.42;27.70;;;11.70;91.60;;;;;;8317817;28;20105;-74
2021/03/25 17:26:52;;;;;;;53.25;29.33;;;11.70;91.60;;;;;;8323042;28;20060;-73
2021/03/25 17:30:58;;;;;;;52.50;29.88;;;11.70;91.80;;;;;;8321600;28;20393;-73
2021/03/25 17:35:02;;;;;;;52.40;30.23;;;11.70;91.80;;;;;;8307413;28;20064;-73
2021/03/25 17:39:08;;;;;;;51.38;31.80;;;11.70;91.80;;;;;;8319329;28;20049;-74
2021/03/25 17:43:17;;;;;;;51.95;31.60;;;11.70;91.70;;;;;;8322687;28;20060;-74
2021/03/25 17:47:21;;;;;;;50.38;28.55;;;11.60;91.80;;;;;;8324635;28;20049;-74
2021/03/25 17:51:29;;;;;;;50.25;31.00;;;11.60;91.90;;;;;;8332837;28;20099;-74
2021/03/25 17:55:47;;;;;;;50.30;29.90;;;11.60;91.90;;;;;;8315176;28;20403;-73
2021/03/25 17:59:51;;;;;;;59.65;31.80;;;11.50;92.10;;;;;;8325502;28;20041;-73
2021/03/25 18:03:55;;;;;;;51.28;30.65;;;11.50;92.00;;;;;;8321586;28;20353;-73
2021/03/25 18:08:03;;;;;;;53.90;32.35;;;11.40;92.00;;;;;;8322429;28;20152;-73
2021/03/25 18:12:09;;;;;;;52.13;31.52;;;11.40;92.10;;;;;;8324494;28;20048;-74
2021/03/25 18:16:15;;;;;;;56.53;32.08;;;11.40;92.40;;;;;;8315514;28;20045;-73
2021/03/25 18:20:22;;;;;;;55.65;33.10;;;11.30;92.20;;;;;;8312274;28;20052;-77
2021/03/25 18:24:26;;;;;;;56.03;32.53;;;12.00;92.30;;;;;;8309312;28;20404;-77
2021/03/25 18:28:32;;;;;;;53.70;32.30;;;11.30;92.20;;;;;;8338672;28;20056;-77
2021/03/25 18:32:36;;;;;;;60.15;33.55;;;11.20;92.20;;;;;;8314100;28;20144;-77
2021/03/25 18:36:45;;;;;;;59.83;32.25;;;11.20;92.20;;;;;;8338715;28;20040;-77
2021/03/25 18:40:50;;;;;;;54.22;33.50;;;11.10;92.20;;;;;;8343822;28;20045;-77
2021/03/25 18:44:56;;;;;;;49.95;32.10;;;11.10;92.30;;;;;;8331031;28;20427;-78
2021/03/25 18:49:03;;;;;;;56.55;33.42;;;11.00;92.30;;;;;;8315760;28;20445;-77
2021/03/25 18:53:13;;;;;;;57.10;33.00;;;11.00;92.30;;;;;;8334044;28;20121;-77
2021/03/25 18:57:18;;;;;;;60.92;35.30;;;10.90;92.30;;;;;;8317968;28;20100;-77
2021/03/25 19:01:23;;;;;;;56.83;34.08;;;10.90;92.40;;;;;;8324139;28;20067;-77
2021/03/25 19:05:27;;;;;;;59.28;34.03;;;10.90;92.40;;;;;;8310949;28;20132;-77
2021/03/25 19:09:32;;;;;;;59.33;35.60;;;10.90;92.40;;;;;;8331802;28;20450;-77
2021/03/25 19:13:39;;;;;;;57.40;35.53;;;10.90;92.50;;;;;;8316375;28;20511;-77
2021/03/25 19:17:44;;;;;;;63.35;35.03;;;10.90;92.40;;;;;;8303787;28;20058;-77
2021/03/25 19:21:50;;;;;;;58.13;35.35;;;10.90;92.40;;;;;;8315235;28;20052;-77
2021/03/25 19:25:55;;;;;;;62.38;35.45;;;10.90;92.40;;;;;;8326298;28;20056;-77
2021/03/25 19:29:57;;;;;;;60.40;34.72;;;10.90;92.40;;;;;;8329301;28;20060;-77
2021/03/25 19:34:02;;;;;;;57.92;35.55;;;10.90;92.40;;;;;;8320868;28;20522;-76
2021/03/25 19:38:06;;;;;;;54.60;34.17;;;10.90;92.40;;;;;;8303129;28;20107;-76
2021/03/25 19:42:11;;;;;;;63.08;35.22;;;10.90;92.40;;;;;;8292797;28;24112;-74
2021/03/25 19:46:19;;;;;;;65.05;35.90;;;10.90;92.40;;;;;;8294271;28;20041;-74
2021/03/25 19:50:24;;;;;;;60.60;36.35;;;10.90;92.40;;;;;;8312839;28;20056;-74
2021/03/25 19:54:30;;;;;;;56.53;35.42;;;10.90;92.40;;;;;;8292442;28;20040;-74
2021/03/25 19:58:39;;;;;;;62.92;34.88;;;10.90;92.40;;;;;;8302509;28;20045;-73
2021/03/25 20:02:46;;;;;;;63.38;36.05;;;10.90;92.40;;;;;;8304780;28;20491;-72
2021/03/25 20:06:53;;;;;;;61.15;35.83;;;10.90;92.40;;;;;;8304400;28;20053;-74
2021/03/25 20:10:59;;;;;;;66.97;37.22;;;10.80;92.50;;;;;;8312021;28;20423;-74
2021/03/25 20:15:05;;;;;;;60.67;35.17;;;10.70;92.60;;;;;;8304657;28;20080;-75
2021/03/25 20:19:12;;;;;;;57.92;35.40;;;10.70;92.60;;;;;;8281545;28;20049;-74
2021/03/25 20:23:21;;;;;;;55.17;33.88;;;10.60;92.60;;;;;;8312133;28;20049;-74
2021/03/25 20:27:46;;;;;;;58.78;34.97;;;9.90;92.50;;;;;;8291116;28;20071;-74
2021/03/25 20:31:50;;;;;;;56.00;35.75;;;10.60;92.80;;;;;;8280465;28;20486;-75
2021/03/25 20:35:58;;;;;;;57.97;33.80;;;10.50;92.80;;;;;;8284696;28;20423;-75
2021/03/25 20:40:07;;;;;;;58.20;34.53;;;10.50;93.00;;;;;;8309939;28;20049;-76
2021/03/25 20:44:12;;;;;;;56.88;33.90;;;10.40;93.00;;;;;;8305708;28;20057;-75
2021/03/25 20:48:17;;;;;;;54.30;35.58;;;10.40;93.10;;;;;;8321638;28;20041;-76
2021/03/25 20:52:22;;;;;;;61.40;38.45;;;10.40;93.20;;;;;;8312481;28;20061;-70
2021/03/25 20:56:28;;;;;;;60.20;34.33;;;10.30;93.30;;;;;;8301020;28;20045;-75
2021/03/25 21:00:39;;;;;;;58.47;34.38;;;10.30;93.30;;;;;;8319385;28;20041;-75
2021/03/25 21:04:48;;;;;;;57.35;33.30;;;10.30;93.50;;;;;;8298779;28;20494;-74
2021/03/25 21:08:53;;;;;;;52.38;32.20;;;10.20;93.60;;;;;;8301259;28;20500;-73
2021/03/25 21:13:00;;;;;;;50.72;32.22;;;10.20;93.60;;;;;;8308583;28;20040;-75
2021/03/25 21:17:05;;;;;;;54.83;33.28;;;10.20;93.70;;;;;;8301531;28;20163;-75
2021/03/25 21:21:12;;;;;;;52.10;32.17;;;10.10;93.70;;;;;;8305502;28;20058;-74
2021/03/25 21:25:19;;;;;;;54.97;32.13;;;10.10;93.80;;;;;;8287611;28;20067;-74
2021/03/25 21:29:23;;;;;;;50.25;29.95;;;10.10;93.80;;;;;;8304096;28;20060;-73